Orno Kurir — SGBP — position and weather

sailwx.info

Track history (hours):
 
Tides and Currents Weather Stations Pressure Air Temp Water Temp Dewpoint Dewpoint Depression Visibility Wind Speed Wind Dir Waves Ship Positions

Orno Kurir

Last reported at 2015-Feb-01 16:27 UTC. Time now 2015-Feb-01 18:15 UTC.
Position N 59°08' E 018°24'.

Length 48 m; draft 3.5 m.

Type: Passenger vessel. MMSI: 265549230.

Date/timePositionNaut miles runAvg speedWind from/ knotsBaromVisibWave heightAir tempDewpointWater temp
2015-Feb-01 16:27N 59°08' E 018°24'0 0.0
2015-Feb-01 15:30N 59°08' E 018°24'0 0.0
2015-Feb-01 14:29N 59°08' E 018°24'0 0.0
2015-Feb-01 13:27N 59°08' E 018°24'0 0.0
2015-Feb-01 12:31N 59°08' E 018°24'0 0.0
2015-Feb-01 08:28N 59°08' E 018°24'0 0.0
2015-Jan-31 16:29N 59°08' E 018°24'0 0.0
2015-Jan-31 15:29N 59°08' E 018°24'0 0.0
2015-Jan-31 11:31N 59°08' E 018°24'0 0.0
2015-Jan-31 09:30N 59°08' E 018°24'0 0.0
2015-Jan-31 08:29N 59°08' E 018°24'0 0.0
2015-Jan-31 07:28N 59°08' E 018°24'2 0.1
2015-Jan-30 17:14N 59°06' E 018°22'2 2.2
2015-Jan-30 16:27N 59°08' E 018°24'0 0.0
2015-Jan-30 15:30N 59°08' E 018°24'0 0.0
2015-Jan-30 14:29N 59°08' E 018°24'0 0.0
2015-Jan-30 11:29N 59°08' E 018°24'0 0.0
2015-Jan-30 07:32N 59°08' E 018°24'0 0.0
2015-Jan-30 06:28N 59°08' E 018°24'0 0.0
2015-Jan-30 05:29N 59°08' E 018°24'2 0.3
2015-Jan-29 20:23N 59°05' E 018°25'0 0.1
2015-Jan-29 19:31N 59°06' E 018°25'1 0.6
2015-Jan-29 17:09N 59°07' E 018°26'0 0.0
2015-Jan-29 16:13N 59°07' E 018°26'1 1.9
2015-Jan-29 15:29N 59°08' E 018°24'0 0.0
2015-Jan-29 14:29N 59°08' E 018°24'0 0.0
2015-Jan-29 11:32N 59°08' E 018°24'0 0.0
2015-Jan-29 10:10N 59°08' E 018°24'1 0.5
2015-Jan-29 07:11N 59°07' E 018°26'1 2.0
2015-Jan-29 06:30N 59°08' E 018°24'0 0.5
2015-Jan-29 05:33N 59°08' E 018°25'2 0.2
2015-Jan-28 19:07N 59°05' E 018°25'2 1.7
2015-Jan-28 18:13N 59°07' E 018°26'0 0.0
2015-Jan-28 17:10N 59°07' E 018°26'1 2.1
2015-Jan-28 16:30N 59°08' E 018°24'1 1.1
2015-Jan-28 15:10N 59°07' E 018°26'1 2.1
2015-Jan-28 14:29N 59°08' E 018°24'0 0.0
2015-Jan-28 11:29N 59°08' E 018°24'0 0.1
2015-Jan-28 07:33N 59°08' E 018°25'0 0.0
2015-Jan-28 06:33N 59°08' E 018°25'0 0.0
2015-Jan-28 05:33N 59°08' E 018°25'2 0.2
2015-Jan-27 20:23N 59°05' E 018°25'0 0.0
2015-Jan-27 19:30N 59°05' E 018°25'2 1.2
2015-Jan-27 17:27N 59°08' E 018°24'0 0.0
2015-Jan-27 16:27N 59°08' E 018°24'0 0.0
2015-Jan-27 15:29N 59°08' E 018°24'0 0.5
2015-Jan-27 14:33N 59°08' E 018°25'0 0.2
2015-Jan-27 11:30N 59°08' E 018°24'0 0.0
2015-Jan-27 07:32N 59°08' E 018°24'0 0.0
2015-Jan-27 06:30N 59°08' E 018°24'0 0.0
2015-Jan-27 05:30N 59°08' E 018°24'2 0.2
2015-Jan-26 19:11N 59°05' E 018°25'2 3.9
2015-Jan-26 18:33N 59°08' E 018°24'1 1.0
2015-Jan-26 17:09N 59°07' E 018°26'1 1.2
2015-Jan-26 16:20N 59°08' E 018°25'1 0.8
2015-Jan-26 15:09N 59°07' E 018°26'0 0.0
2015-Jan-26 14:09N 59°07' E 018°26'1 0.2
2015-Jan-26 07:24N 59°08' E 018°24'0 0.4
2015-Jan-26 06:20N 59°08' E 018°25'0 0.4
2015-Jan-26 05:16N 59°08' E 018°24'0 0.0
2015-Jan-25 16:26N 59°08' E 018°24'1 1.1
2015-Jan-25 15:10N 59°07' E 018°26'1 2.0
2015-Jan-25 14:29N 59°08' E 018°24'0 0.1
2015-Jan-25 13:30N 59°08' E 018°24'0 0.1
2015-Jan-25 12:29N 59°08' E 018°24'0 0.0
2015-Jan-25 08:29N 59°08' E 018°24'0 0.0
2015-Jan-24 16:25N 59°08' E 018°24'0 0.5
2015-Jan-24 15:33N 59°08' E 018°25'0 0.1
2015-Jan-24 11:26N 59°08' E 018°24'0 0.2
2015-Jan-24 09:33N 59°08' E 018°25'0 0.0
2015-Jan-24 08:33N 59°08' E 018°25'0 0.4
2015-Jan-24 07:29N 59°08' E 018°24'0 0.0
2015-Jan-23 17:33N 59°08' E 018°25'0 0.2
2015-Jan-23 16:32N 59°08' E 018°25'0 0.3
2015-Jan-23 15:28N 59°08' E 018°24'0 0.0
2015-Jan-23 14:27N 59°08' E 018°24'0 0.0
2015-Jan-23 11:31N 59°08' E 018°24'0 0.0
2015-Jan-23 07:33N 59°08' E 018°24'0 0.0
2015-Jan-23 06:31N 59°08' E 018°24'0 0.1
2015-Jan-23 05:29N 59°08' E 018°24'2 0.3
2015-Jan-22 20:24N 59°05' E 018°25'0 0.2
2015-Jan-22 19:31N 59°06' E 018°25'2 1.1
2015-Jan-22 17:30N 59°08' E 018°24'0 0.1
2015-Jan-22 16:31N 59°08' E 018°24'  
Track history (hours):
 
Tides and Currents Weather Stations Pressure Air Temp Water Temp Dewpoint Dewpoint Depression Visibility Wind Speed Wind Dir Waves Ship Positions

Orno Kurir

Last reported at 2015-Feb-01 16:27 UTC. Time now 2015-Feb-01 18:15 UTC.
Position N 59°08' E 018°24'.

Length 48 m; draft 3.5 m.

Type: Passenger vessel. MMSI: 265549230.

Date/timePositionNaut miles runAvg speedWind from/ knotsBaromVisibWave heightAir tempDewpointWater temp
2015-Feb-01 16:27N 59°08' E 018°24'0 0.0
2015-Feb-01 15:30N 59°08' E 018°24'0 0.0
2015-Feb-01 14:29N 59°08' E 018°24'0 0.0
2015-Feb-01 13:27N 59°08' E 018°24'0 0.0
2015-Feb-01 12:31N 59°08' E 018°24'0 0.0
2015-Feb-01 08:28N 59°08' E 018°24'0 0.0
2015-Jan-31 16:29N 59°08' E 018°24'0 0.0
2015-Jan-31 15:29N 59°08' E 018°24'0 0.0
2015-Jan-31 11:31N 59°08' E 018°24'0 0.0
2015-Jan-31 09:30N 59°08' E 018°24'0 0.0
2015-Jan-31 08:29N 59°08' E 018°24'0 0.0
2015-Jan-31 07:28N 59°08' E 018°24'2 0.1
2015-Jan-30 17:14N 59°06' E 018°22'2 2.2
2015-Jan-30 16:27N 59°08' E 018°24'0 0.0
2015-Jan-30 15:30N 59°08' E 018°24'0 0.0
2015-Jan-30 14:29N 59°08' E 018°24'0 0.0
2015-Jan-30 11:29N 59°08' E 018°24'0 0.0
2015-Jan-30 07:32N 59°08' E 018°24'0 0.0
2015-Jan-30 06:28N 59°08' E 018°24'0 0.0
2015-Jan-30 05:29N 59°08' E 018°24'2 0.3
2015-Jan-29 20:23N 59°05' E 018°25'0 0.1
2015-Jan-29 19:31N 59°06' E 018°25'1 0.6
2015-Jan-29 17:09N 59°07' E 018°26'0 0.0
2015-Jan-29 16:13N 59°07' E 018°26'1 1.9
2015-Jan-29 15:29N 59°08' E 018°24'0 0.0
2015-Jan-29 14:29N 59°08' E 018°24'0 0.0
2015-Jan-29 11:32N 59°08' E 018°24'0 0.0
2015-Jan-29 10:10N 59°08' E 018°24'1 0.5
2015-Jan-29 07:11N 59°07' E 018°26'1 2.0
2015-Jan-29 06:30N 59°08' E 018°24'0 0.5
2015-Jan-29 05:33N 59°08' E 018°25'2 0.2
2015-Jan-28 19:07N 59°05' E 018°25'2 1.7
2015-Jan-28 18:13N 59°07' E 018°26'0 0.0
2015-Jan-28 17:10N 59°07' E 018°26'1 2.1
2015-Jan-28 16:30N 59°08' E 018°24'1 1.1
2015-Jan-28 15:10N 59°07' E 018°26'1 2.1
2015-Jan-28 14:29N 59°08' E 018°24'0 0.0
2015-Jan-28 11:29N 59°08' E 018°24'0 0.1
2015-Jan-28 07:33N 59°08' E 018°25'0 0.0
2015-Jan-28 06:33N 59°08' E 018°25'0 0.0
2015-Jan-28 05:33N 59°08' E 018°25'2 0.2
2015-Jan-27 20:23N 59°05' E 018°25'0 0.0
2015-Jan-27 19:30N 59°05' E 018°25'2 1.2
2015-Jan-27 17:27N 59°08' E 018°24'0 0.0
2015-Jan-27 16:27N 59°08' E 018°24'0 0.0
2015-Jan-27 15:29N 59°08' E 018°24'0 0.5
2015-Jan-27 14:33N 59°08' E 018°25'0 0.2
2015-Jan-27 11:30N 59°08' E 018°24'0 0.0
2015-Jan-27 07:32N 59°08' E 018°24'0 0.0
2015-Jan-27 06:30N 59°08' E 018°24'0 0.0
2015-Jan-27 05:30N 59°08' E 018°24'2 0.2
2015-Jan-26 19:11N 59°05' E 018°25'2 3.9
2015-Jan-26 18:33N 59°08' E 018°24'1 1.0
2015-Jan-26 17:09N 59°07' E 018°26'1 1.2
2015-Jan-26 16:20N 59°08' E 018°25'1 0.8
2015-Jan-26 15:09N 59°07' E 018°26'0 0.0
2015-Jan-26 14:09N 59°07' E 018°26'1 0.2
2015-Jan-26 07:24N 59°08' E 018°24'0 0.4
2015-Jan-26 06:20N 59°08' E 018°25'0 0.4
2015-Jan-26 05:16N 59°08' E 018°24'0 0.0
2015-Jan-25 16:26N 59°08' E 018°24'1 1.1
2015-Jan-25 15:10N 59°07' E 018°26'1 2.0
2015-Jan-25 14:29N 59°08' E 018°24'0 0.1
2015-Jan-25 13:30N 59°08' E 018°24'0 0.1
2015-Jan-25 12:29N 59°08' E 018°24'0 0.0
2015-Jan-25 08:29N 59°08' E 018°24'0 0.0
2015-Jan-24 16:25N 59°08' E 018°24'0 0.5
2015-Jan-24 15:33N 59°08' E 018°25'0 0.1
2015-Jan-24 11:26N 59°08' E 018°24'0 0.2
2015-Jan-24 09:33N 59°08' E 018°25'0 0.0
2015-Jan-24 08:33N 59°08' E 018°25'0 0.4
2015-Jan-24 07:29N 59°08' E 018°24'0 0.0
2015-Jan-23 17:33N 59°08' E 018°25'0 0.2
2015-Jan-23 16:32N 59°08' E 018°25'0 0.3
2015-Jan-23 15:28N 59°08' E 018°24'0 0.0
2015-Jan-23 14:27N 59°08' E 018°24'0 0.0
2015-Jan-23 11:31N 59°08' E 018°24'0 0.0
2015-Jan-23 07:33N 59°08' E 018°24'0 0.0
2015-Jan-23 06:31N 59°08' E 018°24'0 0.1
2015-Jan-23 05:29N 59°08' E 018°24'2 0.3
2015-Jan-22 20:24N 59°05' E 018°25'0 0.2
2015-Jan-22 19:31N 59°06' E 018°25'2 1.1
2015-Jan-22 17:30N 59°08' E 018°24'0 0.1
2015-Jan-22 16:31N 59°08' E 018°24'  

Dump ship's entire track history